Time,TemperatureF,DewpointF,PressureIn,WindDirection,WindDirectionDegrees,WindSpeedMPH,WindSpeedGustMPH,Humidity,HourlyPrecipIn,Conditions,Clouds,dailyrainin,SoftwareType,DateUTC
2016-09-25 00:00:00,71.6,41.0,29.93,NW,307,0.0,0.0,33,0.00,,,0.00,WeatherTracker,2016-09-25 07:00:00,
2016-09-25 00:10:00,71.0,40.4,29.93,NW,307,1.0,0.0,33,0.00,,,0.00,WeatherTracker,2016-09-25 07:10:00,
2016-09-25 00:20:00,72.0,40.5,29.93,WNW,290,0.0,0.0,32,0.00,,,0.00,WeatherTracker,2016-09-25 07:20:00,
2016-09-25 00:30:00,72.5,41.7,29.93,WNW,302,1.0,0.0,33,0.00,,,0.00,WeatherTracker,2016-09-25 07:30:00,
2016-09-25 00:40:00,71.9,40.4,29.93,WNW,302,0.0,0.0,32,0.00,,,0.00,WeatherTracker,2016-09-25 07:40:00,
2016-09-25 00:45:00,72.1,40.6,29.93,WNW,300,1.0,0.0,32,0.00,,,0.00,WeatherTracker,2016-09-25 07:45:00,
2016-09-25 00:55:00,72.0,39.7,29.93,WNW,301,1.0,0.0,31,0.00,,,0.00,WeatherTracker,2016-09-25 07:55:00,
2016-09-25 01:15:00,72.0,40.5,29.94,SE,145,2.0,0.0,32,0.00,,,0.00,WeatherTracker,2016-09-25 08:15:00,
2016-09-25 01:20:00,72.4,40.9,29.94,SE,141,1.0,0.0,32,0.00,,,0.00,WeatherTracker,2016-09-25 08:20:00,
2016-09-25 01:30:00,72.5,41.0,29.94,SE,130,1.0,0.0,32,0.00,,,0.00,WeatherTracker,2016-09-25 08:30:00,
2016-09-25 01:40:00,70.8,41.8,29.95,SSE,161,2.0,0.0,35,0.00,,,0.00,WeatherTracker,2016-09-25 08:40:00,
2016-09-25 01:50:00,70.7,40.2,29.94,SE,139,1.0,0.0,33,0.00,,,0.00,WeatherTracker,2016-09-25 08:50:00,
2016-09-25 01:55:00,71.3,39.9,29.94,SSE,156,2.0,0.0,32,0.00,,,0.00,WeatherTracker,2016-09-25 08:55:00,
2016-09-25 02:00:00,71.9,39.6,29.94,SE,128,1.0,0.0,31,0.00,,,0.00,WeatherTracker,2016-09-25 09:00:00,
2016-09-25 02:10:00,72.1,39.8,29.94,SSE,155,1.0,0.0,31,0.00,,,0.00,WeatherTracker,2016-09-25 09:10:00,
2016-09-25 02:15:00,72.1,39.8,29.95,SSE,151,1.0,0.0,31,0.00,,,0.00,WeatherTracker,2016-09-25 09:15:00,
2016-09-25 02:25:00,71.6,40.2,29.95,SE,134,1.0,0.0,32,0.00,,,0.00,WeatherTracker,2016-09-25 09:25:00,
2016-09-25 02:30:00,71.6,41.0,29.95,SE,136,1.0,0.0,33,0.00,,,0.00,WeatherTracker,2016-09-25 09:30:00,
2016-09-25 02:35:00,71.5,40.9,29.95,SSE,150,2.0,0.0,33,0.00,,,0.00,WeatherTracker,2016-09-25 09:35:00,
2016-09-25 02:45:00,71.1,41.3,29.95,SSE,158,1.0,0.0,34,0.00,,,0.00,WeatherTracker,2016-09-25 09:45:00,
2016-09-25 02:50:00,71.1,41.3,29.94,SE,141,0.0,0.0,34,0.00,,,0.00,WeatherTracker,2016-09-25 09:50:00,
2016-09-25 02:55:00,71.1,41.3,29.94,SSE,155,1.0,0.0,34,0.00,,,0.00,WeatherTracker,2016-09-25 09:55:00,
2016-09-25 03:15:00,69.1,42.4,29.94,WSW,239,0.0,0.0,38,0.00,,,0.00,WeatherTracker,2016-09-25 10:15:00,
2016-09-25 03:30:00,66.7,42.9,29.94,WSW,238,0.0,0.0,42,0.00,,,0.00,WeatherTracker,2016-09-25 10:30:00,
2016-09-25 03:40:00,66.6,42.2,29.94,WSW,239,0.0,0.0,41,0.00,,,0.00,WeatherTracker,2016-09-25 10:40:00,
2016-09-25 03:45:00,67.0,41.9,29.94,West,268,1.0,0.0,40,0.00,,,0.00,WeatherTracker,2016-09-25 10:45:00,
2016-09-25 03:55:00,66.7,42.9,29.94,NW,315,0.0,0.0,42,0.00,,,0.00,WeatherTracker,2016-09-25 10:55:00,
2016-09-25 04:05:00,66.7,41.0,29.94,NW,314,0.0,0.0,39,0.00,,,0.00,WeatherTracker,2016-09-25 11:05:00,
2016-09-25 04:15:00,67.7,41.2,29.94,NW,315,0.0,0.0,38,0.00,,,0.00,WeatherTracker,2016-09-25 11:15:00,
2016-09-25 04:30:00,67.5,41.0,29.94,NW,312,1.0,0.0,38,0.00,,,0.00,WeatherTracker,2016-09-25 11:30:00,
2016-09-25 04:35:00,67.9,42.7,29.94,NW,312,0.0,0.0,40,0.00,,,0.00,WeatherTracker,2016-09-25 11:35:00,
2016-09-25 04:45:00,68.7,40.7,29.94,NW,307,2.0,0.0,36,0.00,,,0.00,WeatherTracker,2016-09-25 11:45:00,
2016-09-25 04:50:00,68.1,41.5,29.94,NW,307,0.0,0.0,38,0.00,,,0.00,WeatherTracker,2016-09-25 11:50:00,
2016-09-25 05:00:00,68.1,40.8,29.95,NW,307,1.0,0.0,37,0.00,,,0.00,WeatherTracker,2016-09-25 12:00:00,
2016-09-25 05:10:00,68.1,41.5,29.95,NW,307,1.0,0.0,38,0.00,,,0.00,WeatherTracker,2016-09-25 12:10:00,
2016-09-25 05:20:00,67.4,40.9,29.95,NW,307,0.0,0.0,38,0.00,,,0.00,WeatherTracker,2016-09-25 12:20:00,
2016-09-25 05:30:00,66.2,41.8,29.95,West,281,1.0,0.0,41,0.00,,,0.00,WeatherTracker,2016-09-25 12:30:00,
2016-09-25 05:35:00,65.7,42.0,29.95,WSW,246,0.0,0.0,42,0.00,,,0.00,WeatherTracker,2016-09-25 12:35:00,
2016-09-25 05:45:00,65.6,41.9,29.95,WNW,296,1.0,0.0,42,0.00,,,0.00,WeatherTracker,2016-09-25 12:45:00,
2016-09-25 05:50:00,66.1,41.7,29.95,West,278,1.0,0.0,41,0.00,,,0.00,WeatherTracker,2016-09-25 12:50:00,
2016-09-25 06:00:00,67.1,40.6,29.95,West,278,1.0,0.0,38,0.00,,,0.00,WeatherTracker,2016-09-25 13:00:00,
2016-09-25 06:10:00,67.4,40.9,29.96,West,280,1.0,0.0,38,0.00,,,0.00,WeatherTracker,2016-09-25 13:10:00,
2016-09-25 06:15:00,67.4,40.9,29.95,West,276,0.0,0.0,38,0.00,,,0.00,WeatherTracker,2016-09-25 13:15:00,
2016-09-25 06:25:00,68.2,41.6,29.96,West,270,1.0,0.0,38,0.00,,,0.00,WeatherTracker,2016-09-25 13:25:00,
2016-09-25 06:30:00,67.6,41.1,29.96,NW,305,1.0,0.0,38,0.00,,,0.00,WeatherTracker,2016-09-25 13:30:00,
2016-09-25 06:40:00,67.7,41.2,29.97,NW,305,1.0,0.0,38,0.00,,,0.00,WeatherTracker,2016-09-25 13:40:00,
2016-09-25 06:45:00,66.3,41.9,29.97,NW,305,0.0,0.0,41,0.00,,,0.00,WeatherTracker,2016-09-25 13:45:00,
2016-09-25 06:55:00,66.8,41.7,29.97,NW,305,0.0,0.0,40,0.00,,,0.00,WeatherTracker,2016-09-25 13:55:00,
2016-09-25 07:00:00,67.6,41.1,29.97,NW,305,1.0,0.0,38,0.00,,,0.00,WeatherTracker,2016-09-25 14:00:00,
2016-09-25 07:10:00,69.2,41.1,29.97,WSW,248,1.0,0.0,36,0.00,,,0.00,WeatherTracker,2016-09-25 14:10:00,
2016-09-25 07:25:00,71.5,42.4,29.98,NW,323,1.0,0.0,35,0.00,,,0.00,WeatherTracker,2016-09-25 14:25:00,
2016-09-25 07:30:00,69.7,42.3,29.98,NW,323,0.0,0.0,37,0.00,,,0.00,WeatherTracker,2016-09-25 14:30:00,
2016-09-25 07:40:00,68.4,43.1,29.98,NW,323,0.0,0.0,40,0.00,,,0.00,WeatherTracker,2016-09-25 14:40:00,
2016-09-25 07:45:00,68.4,41.1,29.98,NW,323,0.0,0.0,37,0.00,,,0.00,WeatherTracker,2016-09-25 14:45:00,
2016-09-25 07:55:00,70.6,43.7,29.98,NW,323,1.0,0.0,38,0.00,,,0.00,WeatherTracker,2016-09-25 14:55:00,
2016-09-25 08:00:00,71.0,45.5,29.99,NW,323,0.0,0.0,40,0.00,,,0.00,WeatherTracker,2016-09-25 15:00:00,
2016-09-25 08:10:00,72.2,46.5,29.99,NW,321,1.0,0.0,40,0.00,,,0.00,WeatherTracker,2016-09-25 15:10:00,
2016-09-25 08:15:00,72.4,46.0,29.99,NW,321,0.0,0.0,39,0.00,,,0.00,WeatherTracker,2016-09-25 15:15:00,
2016-09-25 08:25:00,73.4,46.2,29.99,NW,321,0.0,0.0,38,0.00,,,0.00,WeatherTracker,2016-09-25 15:25:00,
2016-09-25 08:30:00,74.2,46.9,29.99,NW,322,0.0,0.0,38,0.00,,,0.00,WeatherTracker,2016-09-25 15:30:00,
2016-09-25 08:35:00,74.7,48.1,29.99,NW,321,1.0,0.0,39,0.00,,,0.00,WeatherTracker,2016-09-25 15:35:00,
2016-09-25 08:40:00,75.0,46.9,29.99,NW,321,0.0,0.0,37,0.00,,,0.00,WeatherTracker,2016-09-25 15:40:00,
2016-09-25 08:50:00,76.8,46.3,29.99,NW,321,0.0,0.0,34,0.00,,,0.00,WeatherTracker,2016-09-25 15:50:00,
2016-09-25 08:55:00,78.8,42.9,29.99,NW,322,0.0,0.0,28,0.00,,,0.00,WeatherTracker,2016-09-25 15:55:00,
2016-09-25 09:00:00,81.2,47.7,29.99,NW,322,0.0,0.0,31,0.00,,,0.00,WeatherTracker,2016-09-25 16:00:00,
2016-09-25 09:10:00,81.7,44.4,29.99,NW,322,0.0,0.0,27,0.00,,,0.00,WeatherTracker,2016-09-25 16:10:00,
2016-09-25 09:15:00,83.2,40.4,29.99,East,101,0.0,0.0,22,0.00,,,0.00,WeatherTracker,2016-09-25 16:15:00,
2016-09-25 09:25:00,83.3,46.8,29.99,West,276,1.0,0.0,28,0.00,,,0.00,WeatherTracker,2016-09-25 16:25:00,
2016-09-25 09:30:00,83.2,46.7,29.99,West,274,0.0,0.0,28,0.00,,,0.00,WeatherTracker,2016-09-25 16:30:00,
2016-09-25 09:40:00,86.5,40.6,29.99,East,90,0.0,0.0,20,0.00,,,0.00,WeatherTracker,2016-09-25 16:40:00,
2016-09-25 09:50:00,88.6,38.2,29.99,SSE,157,2.0,0.0,17,0.00,,,0.00,WeatherTracker,2016-09-25 16:50:00,
2016-09-25 09:55:00,89.0,40.0,29.99,East,79,0.0,0.0,18,0.00,,,0.00,WeatherTracker,2016-09-25 16:55:00,
2016-09-25 10:00:00,89.2,40.1,29.99,SE,127,0.0,0.0,18,0.00,,,0.00,WeatherTracker,2016-09-25 17:00:00,
2016-09-25 10:05:00,89.8,37.6,29.99,East,94,1.0,0.0,16,0.00,,,0.00,WeatherTracker,2016-09-25 17:05:00,
2016-09-25 10:15:00,90.1,37.8,29.99,SW,228,1.0,0.0,16,0.00,,,0.00,WeatherTracker,2016-09-25 17:15:00,
2016-09-25 10:25:00,90.1,37.8,29.99,NW,313,2.0,0.0,16,0.00,,,0.00,WeatherTracker,2016-09-25 17:25:00,
2016-09-25 10:30:00,90.2,37.9,29.99,ENE,72,1.0,0.0,16,0.00,,,0.00,WeatherTracker,2016-09-25 17:30:00,
2016-09-25 10:45:00,90.4,38.1,29.99,NW,311,2.0,0.0,16,0.00,,,0.00,WeatherTracker,2016-09-25 17:45:00,
2016-09-25 10:50:00,90.3,38.0,29.99,NW,325,0.0,0.0,16,0.00,,,0.00,WeatherTracker,2016-09-25 17:50:00,
2016-09-25 11:00:00,90.7,38.3,29.98,NW,321,2.0,0.0,16,0.00,,,0.00,WeatherTracker,2016-09-25 18:00:00,
2016-09-25 11:10:00,91.0,38.5,29.98,NW,323,1.0,0.0,16,0.00,,,0.00,WeatherTracker,2016-09-25 18:10:00,
2016-09-25 11:25:00,91.7,39.1,29.97,North,360,1.0,0.0,16,0.00,,,0.00,WeatherTracker,2016-09-25 18:25:00,
2016-09-25 11:30:00,91.9,39.3,29.97,ENE,72,3.0,0.0,16,0.00,,,0.00,WeatherTracker,2016-09-25 18:30:00,
2016-09-25 11:40:00,92.0,39.3,29.97,NNW,345,1.0,0.0,16,0.00,,,0.00,WeatherTracker,2016-09-25 18:40:00,
2016-09-25 11:50:00,92.4,38.0,29.96,NW,315,1.0,0.0,15,0.00,,,0.00,WeatherTracker,2016-09-25 18:50:00,
2016-09-25 11:55:00,92.3,37.9,29.95,SE,139,2.0,0.0,15,0.00,,,0.00,WeatherTracker,2016-09-25 18:55:00,
2016-09-25 12:00:00,92.5,36.3,29.95,SE,136,1.0,0.0,14,0.00,,,0.00,WeatherTracker,2016-09-25 19:00:00,
2016-09-25 12:10:00,92.7,38.2,29.95,North,9,0.0,0.0,15,0.00,,,0.00,WeatherTracker,2016-09-25 19:10:00,
2016-09-25 12:15:00,93.1,38.6,29.94,ESE,111,6.0,0.0,15,0.00,,,0.00,WeatherTracker,2016-09-25 19:15:00,
2016-09-25 12:20:00,93.1,40.2,29.94,North,9,2.0,0.0,16,0.00,,,0.00,WeatherTracker,2016-09-25 19:20:00,
2016-09-25 12:30:00,94.3,39.5,29.94,ESE,122,2.0,0.0,15,0.00,,,0.00,WeatherTracker,2016-09-25 19:30:00,
2016-09-25 12:40:00,95.3,38.5,29.93,NNE,29,3.0,0.0,14,0.00,,,0.00,WeatherTracker,2016-09-25 19:40:00,
2016-09-25 12:50:00,94.7,38.1,29.93,WNW,291,3.0,0.0,14,0.00,,,0.00,WeatherTracker,2016-09-25 19:50:00,
2016-09-25 12:55:00,95.1,38.4,29.92,North,355,1.0,0.0,14,0.00,,,0.00,WeatherTracker,2016-09-25 19:55:00,
2016-09-25 13:00:00,94.8,38.1,29.92,North,352,2.0,0.0,14,0.00,,,0.00,WeatherTracker,2016-09-25 20:00:00,
2016-09-25 13:10:00,95.5,38.7,29.92,SW,217,1.0,0.0,14,0.00,,,0.00,WeatherTracker,2016-09-25 20:10:00,
2016-09-25 13:15:00,95.5,38.7,29.92,SE,141,1.0,0.0,14,0.00,,,0.00,WeatherTracker,2016-09-25 20:15:00,
2016-09-25 13:20:00,95.6,40.5,29.92,ENE,63,2.0,0.0,15,0.00,,,0.00,WeatherTracker,2016-09-25 20:20:00,
2016-09-25 13:25:00,96.2,39.2,29.91,South,176,1.0,0.0,14,0.00,,,0.00,WeatherTracker,2016-09-25 20:25:00,
2016-09-25 13:30:00,96.5,37.6,29.91,SE,131,1.0,0.0,13,0.00,,,0.00,WeatherTracker,2016-09-25 20:30:00,
2016-09-25 13:35:00,96.1,39.2,29.91,East,79,2.0,0.0,14,0.00,,,0.00,WeatherTracker,2016-09-25 20:35:00,
2016-09-25 13:45:00,94.8,39.9,29.91,ESE,122,3.0,0.0,15,0.00,,,0.00,WeatherTracker,2016-09-25 20:45:00,
2016-09-25 13:50:00,95.0,38.3,29.90,SSE,150,4.0,0.0,14,0.00,,,0.00,WeatherTracker,2016-09-25 20:50:00,
2016-09-25 13:55:00,94.9,40.0,29.90,SSE,159,2.0,0.0,15,0.00,,,0.00,WeatherTracker,2016-09-25 20:55:00,
2016-09-25 14:00:00,95.4,40.4,29.90,SE,131,2.0,0.0,15,0.00,,,0.00,WeatherTracker,2016-09-25 21:00:00,
2016-09-25 14:10:00,95.6,40.5,29.90,NE,39,6.0,0.0,15,0.00,,,0.00,WeatherTracker,2016-09-25 21:10:00,
2016-09-25 14:20:00,94.1,41.0,29.90,East,94,2.0,0.0,16,0.00,,,0.00,WeatherTracker,2016-09-25 21:20:00,
2016-09-25 14:25:00,94.1,41.0,29.89,SE,127,2.0,0.0,16,0.00,,,0.00,WeatherTracker,2016-09-25 21:25:00,
2016-09-25 14:30:00,93.6,40.6,29.89,SE,141,1.0,0.0,16,0.00,,,0.00,WeatherTracker,2016-09-25 21:30:00,
2016-09-25 14:40:00,93.3,38.7,29.89,ESE,105,1.0,0.0,15,0.00,,,0.00,WeatherTracker,2016-09-25 21:40:00,
2016-09-25 14:45:00,92.8,40.0,29.89,ESE,111,2.0,0.0,16,0.00,,,0.00,WeatherTracker,2016-09-25 21:45:00,
2016-09-25 14:50:00,92.9,38.4,29.89,SE,135,1.0,0.0,15,0.00,,,0.00,WeatherTracker,2016-09-25 21:50:00,
2016-09-25 15:00:00,92.7,39.9,29.89,SSE,163,0.0,0.0,16,0.00,,,0.00,WeatherTracker,2016-09-25 22:00:00,
2016-09-25 15:10:00,94.0,39.3,29.89,North,353,1.0,0.0,15,0.00,,,0.00,WeatherTracker,2016-09-25 22:10:00,
2016-09-25 15:15:00,94.0,40.9,29.89,NE,54,4.0,0.0,16,0.00,,,0.00,WeatherTracker,2016-09-25 22:15:00,
2016-09-25 15:20:00,93.4,38.8,29.89,ESE,105,2.0,0.0,15,0.00,,,0.00,WeatherTracker,2016-09-25 22:20:00,
2016-09-25 15:30:00,92.1,39.4,29.89,ESE,119,3.0,0.0,16,0.00,,,0.00,WeatherTracker,2016-09-25 22:30:00,
2016-09-25 15:40:00,91.9,39.3,29.89,SE,133,1.0,0.0,16,0.00,,,0.00,WeatherTracker,2016-09-25 22:40:00,
2016-09-25 15:45:00,91.8,40.7,29.88,NNE,25,3.0,0.0,17,0.00,,,0.00,WeatherTracker,2016-09-25 22:45:00,
2016-09-25 15:55:00,91.7,40.7,29.88,NNE,27,1.0,0.0,17,0.00,,,0.00,WeatherTracker,2016-09-25 22:55:00,
2016-09-25 16:00:00,91.6,39.0,29.88,North,9,1.0,0.0,16,0.00,,,0.00,WeatherTracker,2016-09-25 23:00:00,
2016-09-25 16:10:00,91.6,39.0,29.87,North,354,2.0,0.0,16,0.00,,,0.00,WeatherTracker,2016-09-25 23:10:00,
2016-09-25 16:15:00,91.5,38.9,29.87,ESE,120,1.0,0.0,16,0.00,,,0.00,WeatherTracker,2016-09-25 23:15:00,
2016-09-25 16:20:00,91.2,40.3,29.87,ESE,110,1.0,0.0,17,0.00,,,0.00,WeatherTracker,2016-09-25 23:20:00,
2016-09-25 16:30:00,90.6,39.8,29.86,NNW,345,2.0,0.0,17,0.00,,,0.00,WeatherTracker,2016-09-25 23:30:00,
2016-09-25 16:40:00,90.1,37.8,29.86,NNE,15,0.0,0.0,16,0.00,,,0.00,WeatherTracker,2016-09-25 23:40:00,
2016-09-25 16:55:00,89.5,37.4,29.86,East,89,2.0,0.0,16,0.00,,,0.00,WeatherTracker,2016-09-25 23:55:00,
2016-09-25 17:00:00,89.4,37.3,29.86,ESE,121,1.0,0.0,16,0.00,,,0.00,WeatherTracker,2016-09-26 00:00:00,
2016-09-25 17:05:00,89.4,37.3,29.86,SE,139,1.0,0.0,16,0.00,,,0.00,WeatherTracker,2016-09-26 00:05:00,
2016-09-25 17:15:00,89.0,38.5,29.86,ESE,108,0.0,0.0,17,0.00,,,0.00,WeatherTracker,2016-09-26 00:15:00,
2016-09-25 17:20:00,88.7,38.3,29.85,SSE,153,0.0,0.0,17,0.00,,,0.00,WeatherTracker,2016-09-26 00:20:00,
2016-09-25 17:30:00,87.9,37.6,29.86,SE,142,1.0,0.0,17,0.00,,,0.00,WeatherTracker,2016-09-26 00:30:00,
2016-09-25 17:40:00,87.0,36.9,29.86,East,91,1.0,0.0,17,0.00,,,0.00,WeatherTracker,2016-09-26 00:40:00,
2016-09-25 17:45:00,86.7,36.6,29.85,SSE,150,2.0,0.0,17,0.00,,,0.00,WeatherTracker,2016-09-26 00:45:00,
2016-09-25 17:55:00,86.6,36.6,29.86,ENE,77,1.0,0.0,17,0.00,,,0.00,WeatherTracker,2016-09-26 00:55:00,
2016-09-25 18:00:00,86.0,37.5,29.86,ENE,65,2.0,0.0,18,0.00,,,0.00,WeatherTracker,2016-09-26 01:00:00,
2016-09-25 18:15:00,84.8,37.9,29.86,ESE,102,1.0,0.0,19,0.00,,,0.00,WeatherTracker,2016-09-26 01:15:00,
2016-09-25 18:25:00,84.3,37.5,29.86,SSE,150,1.0,0.0,19,0.00,,,0.00,WeatherTracker,2016-09-26 01:25:00,
2016-09-25 18:30:00,83.7,38.3,29.86,SSE,158,2.0,0.0,20,0.00,,,0.00,WeatherTracker,2016-09-26 01:30:00,
2016-09-25 18:35:00,83.3,38.0,29.86,SE,143,2.0,0.0,20,0.00,,,0.00,WeatherTracker,2016-09-26 01:35:00,
2016-09-25 18:40:00,83.1,39.1,29.86,SE,136,2.0,0.0,21,0.00,,,0.00,WeatherTracker,2016-09-26 01:40:00,
2016-09-25 19:00:00,81.6,39.0,29.86,SE,141,1.0,0.0,22,0.00,,,0.00,WeatherTracker,2016-09-26 02:00:00,
2016-09-25 19:10:00,81.2,38.7,29.87,SE,139,1.0,0.0,22,0.00,,,0.00,WeatherTracker,2016-09-26 02:10:00,
2016-09-25 19:20:00,81.1,38.6,29.87,SSE,155,0.0,0.0,22,0.00,,,0.00,WeatherTracker,2016-09-26 02:20:00,
2016-09-25 19:25:00,81.2,37.5,29.87,SSE,155,0.0,0.0,21,0.00,,,0.00,WeatherTracker,2016-09-26 02:25:00,
2016-09-25 19:30:00,81.2,37.5,29.87,SSE,168,0.0,0.0,21,0.00,,,0.00,WeatherTracker,2016-09-26 02:30:00,
2016-09-25 19:35:00,81.0,37.4,29.87,SSE,167,0.0,0.0,21,0.00,,,0.00,WeatherTracker,2016-09-26 02:35:00,
2016-09-25 19:45:00,80.4,36.9,29.87,SSW,193,0.0,0.0,21,0.00,,,0.00,WeatherTracker,2016-09-26 02:45:00,
2016-09-25 19:50:00,80.5,37.0,29.87,SSW,193,0.0,0.0,21,0.00,,,0.00,WeatherTracker,2016-09-26 02:50:00,
2016-09-25 20:00:00,80.5,37.0,29.88,SSW,193,0.0,0.0,21,0.00,,,0.00,WeatherTracker,2016-09-26 03:00:00,
2016-09-25 20:05:00,81.4,38.9,29.88,NNW,339,2.0,0.0,22,0.00,,,0.00,WeatherTracker,2016-09-26 03:05:00,
2016-09-25 20:15:00,81.5,37.8,29.88,North,360,0.0,0.0,21,0.00,,,0.00,WeatherTracker,2016-09-26 03:15:00,
2016-09-25 20:30:00,80.4,38.1,29.89,North,360,0.0,0.0,22,0.00,,,0.00,WeatherTracker,2016-09-26 03:30:00,
2016-09-25 20:40:00,81.1,38.6,29.89,NW,309,0.0,0.0,22,0.00,,,0.00,WeatherTracker,2016-09-26 03:40:00,
2016-09-25 20:45:00,81.6,39.0,29.89,NW,315,0.0,0.0,22,0.00,,,0.00,WeatherTracker,2016-09-26 03:45:00,
2016-09-25 20:55:00,81.0,37.4,29.89,NW,314,0.0,0.0,21,0.00,,,0.00,WeatherTracker,2016-09-26 03:55:00,
2016-09-25 21:05:00,81.4,36.5,29.90,WNW,294,0.0,0.0,20,0.00,,,0.00,WeatherTracker,2016-09-26 04:05:00,
2016-09-25 21:10:00,81.4,37.7,29.90,WNW,293,1.0,0.0,21,0.00,,,0.00,WeatherTracker,2016-09-26 04:10:00,
2016-09-25 21:20:00,81.3,37.6,29.90,WNW,293,0.0,0.0,21,0.00,,,0.00,WeatherTracker,2016-09-26 04:20:00,
2016-09-25 21:25:00,81.0,34.8,29.90,SW,214,0.0,0.0,19,0.00,,,0.00,WeatherTracker,2016-09-26 04:25:00,
2016-09-25 21:30:00,80.9,34.8,29.91,ENE,58,1.0,0.0,19,0.00,,,0.00,WeatherTracker,2016-09-26 04:30:00,
2016-09-25 21:40:00,80.7,35.9,29.91,SSE,149,1.0,0.0,20,0.00,,,0.00,WeatherTracker,2016-09-26 04:40:00,
2016-09-25 21:45:00,80.1,36.6,29.91,SE,124,1.0,0.0,21,0.00,,,0.00,WeatherTracker,2016-09-26 04:45:00,
2016-09-25 21:55:00,78.9,37.9,29.91,SE,136,2.0,0.0,23,0.00,,,0.00,WeatherTracker,2016-09-26 04:55:00,
2016-09-25 22:00:00,79.0,38.0,29.91,ESE,121,1.0,0.0,23,0.00,,,0.00,WeatherTracker,2016-09-26 05:00:00,
2016-09-25 22:05:00,79.4,38.4,29.91,SSE,163,2.0,0.0,23,0.00,,,0.00,WeatherTracker,2016-09-26 05:05:00,
2016-09-25 22:15:00,80.4,36.9,29.91,SE,145,1.0,0.0,21,0.00,,,0.00,WeatherTracker,2016-09-26 05:15:00,